Latest Weather Observations for Lake Macquarie - Cooranbong

IDN60901

Issued at 2:31 pm EST Tuesday 26 July 2016 (issued every 10 minutes, with the page automatically refreshed every 10 minutes)

About weather observations | Map of Sydney area stations | Latest observations for Sydney area | Other Formats
Station Details ID: 061412 Name: LAKE MACQUARIE AWS Lat: -33.09 Lon: 151.46 Height: 6.0 m
Data from the previous 72 hours. | See also: Recent months at Lake Macquarie - Cooranbong
Date/Time
EST
Temp
°C
App
Temp
°C
Dew
Point
°C
Rel
Hum
%
Delta-T
°C
Wind Press
QNH
hPa
Press
MSL
hPa
Rain since
9am
mm
Dir  Spd
km/h
Gust
km/h
Spd
kts
Gust
kts
26/02:30pm 18.5 14.7 3.9 38 6.9 NNW 13 22 7 12 1013.5 1013.5 0.0
26/02:00pm 18.6 14.9 4.4 39 6.8 N 13 24 7 13 1013.5 1013.5 0.0
26/01:30pm 18.8 15.6 4.9 40 6.7 NNW 11 20 6 11 1013.8 1013.8 0.0
26/01:00pm 18.6 16.1 4.8 40 6.6 N 7 13 4 7 1014.3 1014.3 0.0
26/12:30pm 17.6 14.6 4.2 41 6.3 N 9 19 5 10 1014.8 1014.8 0.0
26/12:00pm 17.2 14.3 4.9 44 5.9 N 9 19 5 10 1015.2 1015.2 0.0
26/11:30am 16.3 12.6 4.4 45 5.6 NNW 13 24 7 13 1015.7 1015.7 0.0
26/11:00am 15.8 12.5 4.5 47 5.3 N 11 20 6 11 1016.1 1016.1 0.0
26/10:30am 15.1 11.1 4.8 50 4.8 N 15 22 8 12 1016.4 1016.4 0.0
26/10:00am 14.5 10.8 4.5 51 4.6 N 13 20 7 11 1016.6 1016.6 0.0
26/09:30am 14.0 10.8 5.1 55 4.2 N 11 19 6 10 1016.5 1016.5 0.0
26/09:00am 12.9 10.1 5.3 60 3.5 N 9 15 5 8 1016.5 1016.5 0.0
26/08:30am 11.4 8.9 6.7 73 2.2 NNE 9 15 5 8 1016.3 1016.3 0.0
26/08:26am 10.9 9.0 7.4 79 1.7 NNE 7 15 4 8 1016.3 1016.3 0.0
26/08:00am 5.8 4.3 5.1 95 0.3 WNW 2 7 1 4 1016.1 1016.1 0.0
26/07:30am 3.4 1.8 2.4 93 0.4 CALM 0 0 0 0 1015.9 1015.9 0.0
26/07:00am 3.3 1.7 2.3 93 0.4 CALM 0 0 0 0 1015.7 1015.7 0.0
26/06:30am 3.2 1.6 2.2 93 0.4 CALM 0 4 0 2 1015.3 1015.3 0.0
26/06:00am 3.6 2.0 2.4 92 0.5 CALM 0 0 0 0 1014.9 1014.9 0.0
26/05:30am 3.6 2.0 2.3 91 0.5 CALM 0 0 0 0 1014.7 1014.7 0.0
26/05:00am 4.1 2.5 2.5 89 0.6 CALM 0 0 0 0 1014.6 1014.6 0.0
26/04:30am 4.6 3.1 2.8 88 0.7 CALM 0 0 0 0 1014.4 1014.4 0.0
26/04:00am 5.1 3.6 3.1 87 0.8 CALM 0 0 0 0 1014.3 1014.3 0.0
26/03:30am 5.5 3.6 3.0 84 1.0 SE 2 6 1 3 1014.4 1014.4 0.0
26/03:00am 6.2 4.7 3.2 81 1.3 CALM 0 0 0 0 1014.2 1014.2 0.0
26/02:30am 6.7 5.2 3.0 77 1.5 CALM 0 0 0 0 1014.4 1014.4 0.0
26/02:00am 7.7 5.8 2.6 70 2.1 E 2 6 1 3 1014.4 1014.4 0.0
26/01:30am 8.1 5.8 2.6 68 2.3 NNE 4 6 2 3 1014.3 1014.3 0.0
26/01:00am 8.7 6.7 2.3 64 2.7 NNE 2 6 1 3 1014.6 1014.6 0.0
26/12:30am 10.8 8.4 2.1 55 3.7 N 4 7 2 4 1014.7 1014.7 0.0
26/12:00am 10.8 8.1 2.6 57 3.5 N 6 11 3 6 1014.9 1014.9 0.0
 
Date/Time
EST
Temp
°C
App
Temp
°C
Dew
Point
°C
Rel
Hum
%
Delta-T
°C
Wind Press
QNH
hPa
Press
MSL
hPa
Rain since
9am
mm
Dir  Spd
km/h
Gust
km/h
Spd
kts
Gust
kts
25/11:30pm 11.4 9.1 2.7 55 3.8 N 4 11 2 6 1015.1 1015.1 0.0
25/11:00pm 11.9 9.2 2.4 52 4.1 NW 6 13 3 7 1015.1 1015.1 0.0
25/10:30pm 10.3 8.3 2.2 57 3.4 W 2 6 1 3 1014.9 1014.9 0.0
25/10:00pm 12.0 9.2 1.9 50 4.3 NW 6 19 3 10 1014.6 1014.6 0.0
25/09:30pm 12.1 9.2 1.7 49 4.4 NW 6 9 3 5 1014.8 1014.8 0.0
25/09:00pm 12.7 9.3 2.0 48 4.6 NW 9 19 5 10 1014.8 1014.8 0.0
25/08:30pm 12.9 8.4 1.9 47 4.7 NW 15 30 8 16 1014.7 1014.7 0.0
25/08:00pm 13.2 9.0 1.8 46 4.9 NW 13 37 7 20 1014.9 1014.9 0.0
25/07:30pm 13.3 9.1 1.9 46 4.9 WNW 13 24 7 13 1014.7 1014.7 0.0
25/07:00pm 13.2 10.2 1.8 46 4.9 NW 7 17 4 9 1014.6 1014.6 0.0
25/06:30pm 13.4 9.7 2.3 47 4.9 NW 11 22 6 12 1014.2 1014.2 0.0
25/06:00pm 13.6 10.5 1.6 44 5.2 NW 7 13 4 7 1013.9 1013.9 0.0
25/05:30pm 14.3 11.1 0.9 40 5.7 NW 7 15 4 8 1013.6 1013.6 0.0
25/05:00pm 15.2 11.5 -0.1 35 6.5 WNW 9 19 5 10 1013.1 1013.1 0.0
25/04:30pm 16.4 11.9 -0.3 32 7.1 WNW 13 24 7 13 1013.0 1013.0 0.0
25/04:00pm 17.0 12.0 -1.1 29 7.6 WNW 15 24 8 13 1012.6 1012.6 0.0
25/03:30pm 17.8 14.0 -0.9 28 7.9 WNW 9 17 5 9 1012.7 1012.7 0.0
25/03:00pm 17.5 12.4 -1.7 27 8.0 W 15 24 8 13 1012.7 1012.7 0.0
25/02:30pm 17.8 12.8 -1.4 27 8.1 WNW 15 28 8 15 1012.6 1012.6 0.0
25/02:00pm 17.6 12.9 -2.1 26 8.2 W 13 28 7 15 1012.8 1012.8 0.0
25/01:30pm 17.6 13.1 -0.2 30 7.7 NW 13 26 7 14 1012.8 1012.8 0.0
25/01:00pm 17.0 11.8 -0.2 31 7.4 NW 17 30 9 16 1012.9 1012.9 0.0
25/12:30pm 16.8 11.7 0.5 33 7.1 NW 17 39 9 21 1012.9 1012.9 0.0
25/12:00pm 16.4 11.4 1.3 36 6.6 NW 17 35 9 19 1013.1 1013.1 0.0
25/11:30am 16.4 11.9 2.4 39 6.3 WNW 15 32 8 17 1013.8 1013.8 0.0
25/11:00am 15.6 11.4 1.7 39 6.1 WNW 13 28 7 15 1014.4 1014.4 0.0
25/10:30am 14.9 10.1 2.4 43 5.6 WNW 17 28 9 15 1014.1 1014.1 0.0
25/10:00am 14.6 11.1 3.7 48 5.0 NW 11 20 6 11 1014.1 1014.1 0.0
25/09:30am 13.9 10.3 2.8 47 4.9 NW 11 28 6 15 1014.4 1014.4 0.0
25/09:00am 13.1 9.9 3.2 51 4.4 NW 9 19 5 10 1014.4 1014.4 0.0
25/08:30am 12.6 9.5 3.6 54 4.0 WNW 9 15 5 8 1014.4 1014.4 0.0
25/08:00am 11.5 9.0 3.8 59 3.4 NW 6 13 3 7 1014.0 1014.0 0.0
25/07:30am 10.1 7.7 4.3 67 2.6 NNW 6 15 3 8 1013.8 1013.8 0.0
25/07:00am 6.6 4.8 3.4 80 1.3 NNW 2 6 1 3 1013.6 1013.6 0.0
25/06:30am 7.3 4.9 4.1 80 1.4 NNW 6 9 3 5 1013.2 1013.2 0.0
25/06:00am 6.4 4.6 3.7 83 1.1 N 2 6 1 3 1013.0 1013.0 0.0
25/05:30am 8.2 6.0 5.1 81 1.4 NNW 6 9 3 5 1012.6 1012.6 0.0
25/05:00am 5.5 3.7 3.7 88 0.8 N 2 6 1 3 1012.7 1012.7 0.0
25/04:30am 5.9 4.5 3.4 84 1.0 CALM 0 4 0 2 1012.3 1012.3 0.0
25/04:00am 6.2 3.9 3.0 80 1.3 N 4 6 2 3 1012.0 1012.0 0.0
25/03:30am 8.2 5.7 3.7 73 1.9 N 6 7 3 4 1012.0 1012.0 0.0
25/03:00am 9.1 6.6 3.7 69 2.3 NNW 6 11 3 6 1012.1 1012.1 0.0
25/02:30am 7.9 5.5 4.1 77 1.6 N 6 9 3 5 1012.3 1012.3 0.0
25/02:00am 7.7 5.4 2.8 71 2.1 NNW 4 7 2 4 1012.5 1012.5 0.0
25/01:30am 9.1 6.5 4.1 71 2.2 NNW 7 13 4 7 1012.5 1012.5 0.0
25/01:00am 5.9 3.6 4.9 93 0.4 N 6 9 3 5 1012.7 1012.7 0.0
25/12:30am 2.0 0.2 1.3 95 0.3 CALM 0 0 0 0 1013.0 1013.0 0.0
25/12:00am 2.3 0.6 1.6 95 0.3 CALM 0 0 0 0 1013.3 1013.3 0.0
 
Date/Time
EST
Temp
°C
App
Temp
°C
Dew
Point
°C
Rel
Hum
%
Delta-T
°C
Wind Press
QNH
hPa
Press
MSL
hPa
Rain since
9am
mm
Dir  Spd
km/h
Gust
km/h
Spd
kts
Gust
kts
24/11:30pm 2.2 0.4 1.3 94 0.3 CALM 0 0 0 0 1013.8 1013.8 0.0
24/11:00pm 2.1 -0.8 1.2 94 0.3 N 6 7 3 4 1013.9 1013.9 0.0
24/10:30pm 2.3 0.1 1.3 93 0.4 NNW 2 4 1 2 1014.1 1014.1 0.0
24/10:00pm 2.9 1.2 1.9 93 0.4 CALM 0 4 0 2 1014.3 1014.3 0.0
24/09:30pm 3.2 0.8 2.2 93 0.4 N 4 6 2 3 1014.5 1014.5 0.0
24/09:00pm 3.8 2.2 2.6 92 0.5 CALM 0 2 0 1 1014.9 1014.9 0.0
24/08:30pm 3.6 1.2 2.1 90 0.6 NNE 4 6 2 3 1015.1 1015.1 0.0
24/08:00pm 4.5 1.7 2.2 85 0.9 NNW 6 6 3 3 1015.3 1015.3 0.0
24/07:30pm 4.6 2.3 2.9 89 0.7 NNW 4 6 2 3 1015.2 1015.2 0.0
24/07:00pm 5.3 2.7 3.3 87 0.8 N 6 7 3 4 1015.0 1015.0 0.0
24/06:30pm 6.1 3.9 3.4 83 1.1 NNW 4 4 2 2 1014.5 1014.5 0.0
24/06:00pm 6.9 4.4 3.5 79 1.4 NNW 6 9 3 5 1014.1 1014.1 0.0
24/05:30pm 7.5 5.7 3.6 76 1.7 NW 2 4 1 2 1013.7 1013.7 0.0
24/05:00pm 8.8 7.3 3.2 68 2.4 CALM 0 0 0 0 1013.4 1013.4 0.0
24/04:30pm 10.9 8.8 1.7 53 3.9 NW 2 7 1 4 1013.3 1013.3 0.0
24/04:00pm 11.6 8.2 -0.5 43 4.9 WNW 7 15 4 8 1013.3 1013.3 0.0
24/03:30pm 11.9 8.7 -0.6 42 5.0 WNW 6 9 3 5 1013.3 1013.3 0.0
24/03:00pm 11.9 9.2 0.1 44 4.8 NW 4 9 2 5 1013.5 1013.5 0.0
24/02:30pm 11.7 8.3 -0.8 42 5.0 WNW 7 13 4 7 1013.7 1013.7 0.0
24/02:00pm 11.6 8.3 -1.2 41 5.1 NW 6 9 3 5 1013.5 1013.5 0.0
24/01:30pm 11.6 8.0 -2.2 38 5.4 NW 7 11 4 6 1013.6 1013.6 0.0
24/01:00pm 11.7 7.9 -1.1 41 5.1 NNW 9 17 5 9 1014.2 1014.2 0.0
24/12:30pm 11.5 7.6 -1.6 40 5.1 NW 9 15 5 8 1015.0 1015.0 0.0
24/12:00pm 11.2 7.3 -1.5 41 5.0 NW 9 19 5 10 1016.0 1016.0 0.0
24/11:30am 11.1 6.8 -1.3 42 4.9 NW 11 20 6 11 1016.5 1016.5 0.0
24/11:00am 10.6 7.1 -1.4 43 4.7 NW 7 11 4 6 1016.9 1016.9 0.0
24/10:30am 10.4 6.9 -1.6 43 4.7 NW 7 13 4 7 1016.8 1016.8 0.0
24/10:00am 10.0 6.5 -1.1 46 4.3 NW 7 13 4 7 1016.8 1016.8 0.0
24/09:30am 9.3 5.9 -0.8 49 3.9 WNW 7 15 4 8 1016.9 1016.9 0.0
24/09:00am 6.5 5.1 3.8 83 1.1 CALM 0 4 0 2 1016.9 1016.9 0.0
24/08:30am 4.8 3.2 2.5 85 0.9 CALM 0 0 0 0 1016.9 1016.9 0.0
24/08:00am 3.5 1.9 2.2 91 0.5 CALM 0 0 0 0 1016.3 1016.3 0.0
24/07:30am 2.0 -0.3 0.7 91 0.5 E 2 6 1 3 1015.9 1015.9 0.0
24/07:00am 1.8 -0.1 0.3 90 0.6 CALM 0 0 0 0 1016.2 1016.2 0.0
24/06:30am 2.1 0.2 0.5 89 0.6 CALM 0 0 0 0 1016.1 1016.1 0.0
24/06:00am 2.5 0.6 0.7 88 0.7 CALM 0 4 0 2 1016.2 1016.2 0.0
24/05:30am 2.5 0.2 0.4 86 0.8 E 2 7 1 4 1016.0 1016.0 0.0
24/05:00am 3.2 1.3 0.8 84 0.9 CALM 0 0 0 0 1015.9 1015.9 0.0
24/04:30am 3.1 0.7 0.0 80 1.2 NNE 2 6 1 3 1015.6 1015.6 0.0
24/04:00am 4.0 2.1 0.5 78 1.3 CALM 0 0 0 0 1015.3 1015.3 0.0
24/03:30am 4.7 2.9 1.0 77 1.4 CALM 0 0 0 0 1015.0 1015.0 0.0
24/03:00am 6.1 3.3 -0.6 62 2.5 W 4 7 2 4 1015.1 1015.1 0.0
24/02:30am 8.5 5.6 -1.0 51 3.7 S 4 13 2 7 1015.3 1015.3 0.0
24/02:00am 9.4 5.6 -1.0 48 4.0 WSW 9 17 5 9 1014.8 1014.8 0.0
24/01:30am 4.8 2.9 2.8 87 0.8 N 2 6 1 3 1014.9 1014.9 0.0
24/01:00am 5.0 3.1 2.7 85 0.9 NNW 2 4 1 2 1014.6 1014.6 0.0
24/12:30am 5.4 3.9 3.1 85 0.9 CALM 0 0 0 0 1014.3 1014.3 0.0
24/12:00am 5.8 3.5 2.8 81 1.2 NW 4 6 2 3 1014.4 1014.4 0.0
 
Date/Time
EST
Temp
°C
App
Temp
°C
Dew
Point
°C
Rel
Hum
%
Delta-T
°C
Wind Press
QNH
hPa
Press
MSL
hPa
Rain since
9am
mm
Dir  Spd
km/h
Gust
km/h
Spd
kts
Gust
kts
23/11:30pm 7.7 5.0 2.8 71 2.1 WNW 6 9 3 5 1014.1 1014.1 0.0
23/11:00pm 5.7 3.4 2.7 81 1.2 N 4 4 2 2 1013.8 1013.8 0.0
23/10:30pm 7.2 5.2 2.3 71 2.0 SSE 2 4 1 2 1013.8 1013.8 0.0
23/10:00pm 7.6 6.0 2.5 70 2.1 CALM 0 2 0 1 1013.3 1013.3 0.0
23/09:30pm 8.6 6.9 2.0 63 2.7 CALM 0 2 0 1 1012.9 1012.9 0.0
23/09:00pm 10.8 8.1 0.0 47 4.4 NW 4 11 2 6 1012.0 1012.0 0.0
23/08:30pm 11.9 8.5 -0.3 43 5.0 WNW 7 15 4 8 1012.0 1012.0 0.0
23/08:00pm 12.5 9.1 -0.4 41 5.3 WNW 7 13 4 7 1011.6 1011.6 0.0
23/07:30pm 12.7 9.4 -0.2 41 5.3 WSW 7 17 4 9 1010.8 1010.8 0.0
23/07:00pm 12.6 9.5 0.0 42 5.2 NW 6 13 3 7 1010.0 1010.0 0.0
23/06:30pm 13.1 9.8 -1.2 37 5.8 W 6 17 3 9 1009.8 1009.8 0.0
23/06:00pm 13.7 9.5 -0.7 37 5.9 WNW 11 26 6 14 1009.1 1009.1 0.0
23/05:30pm 14.0 9.5 -0.4 37 6.0 NW 13 20 7 11 1008.7 1008.7 0.0
23/05:00pm 14.9 8.9 -1.6 32 6.7 WNW 20 37 11 20 1008.3 1008.3 0.0
23/04:30pm 15.8 10.4 -1.7 30 7.2 WNW 17 39 9 21 1007.7 1007.7 0.0
23/04:00pm 16.3 9.8 -2.2 28 7.6 WNW 22 54 12 29 1006.8 1006.8 0.0
23/03:30pm 16.9 10.8 -2.2 27 7.8 WNW 20 57 11 31 1006.3 1006.3 0.0
23/03:00pm 17.3 11.3 -1.9 27 8.0 W 20 35 11 19 1005.6 1005.6 0.0

Latest Capital City Observations: Canberra | Sydney | Melbourne | Brisbane | Adelaide | Perth | Hobart | Darwin

Other Formats:

Comma delimited format used in spreadsheet applications
http://www.bom.gov.au/fwo/IDN60901/IDN60901.95767.axf

JavaScript Object Notation format (JSON) in row-major order
http://www.bom.gov.au/fwo/IDN60901/IDN60901.95767.json